Time;durP1;ratioP1;P1;durP2;ratioP2;P2;SDS_P1;SDS_P2;PMS_P1;PMS_P2;Temp;Humidity;BMP_temperature;BMP_pressure;BME280_temperature;BME280_humidity;BME280_pressure;Samples;Min_cycle;Max_cycle;Signal;HPM_P1;HPM_P2
2020/12/26 00:00:19;;;;;;;11.90;2.47;;;1.90;99.90;;;;;;4976480;28;20041;-71
2020/12/26 00:02:46;;;;;;;7.15;2.13;;;1.80;99.90;;;;;;4980717;28;20070;-71
2020/12/26 00:05:12;;;;;;;6.55;2.13;;;1.80;99.90;;;;;;4980665;28;20136;-71
2020/12/26 00:07:37;;;;;;;23.65;3.63;;;1.80;99.90;;;;;;4979585;28;20677;-71
2020/12/26 00:10:03;;;;;;;10.57;2.58;;;1.70;99.90;;;;;;4981277;28;20035;-71
2020/12/26 00:12:29;;;;;;;8.95;2.55;;;1.70;99.90;;;;;;4980566;28;20034;-71
2020/12/26 00:14:54;;;;;;;6.63;2.30;;;1.60;99.90;;;;;;4980623;28;20133;-71
2020/12/26 00:17:20;;;;;;;7.90;2.08;;;1.70;99.90;;;;;;4976541;28;20053;-71
2020/12/26 00:19:46;;;;;;;8.60;2.00;;;1.80;99.90;;;;;;4979953;28;20030;-70
2020/12/26 00:22:11;;;;;;;7.78;2.10;;;1.80;99.90;;;;;;4980945;28;20034;-71
2020/12/26 00:24:37;;;;;;;14.77;3.83;;;1.70;99.90;;;;;;4980766;28;20132;-71
2020/12/26 00:27:03;;;;;;;8.02;2.40;;;1.70;99.90;;;;;;4980817;28;20034;-71
2020/12/26 00:29:29;;;;;;;7.20;2.70;;;1.70;99.90;;;;;;4977751;28;20054;-71
2020/12/26 00:31:55;;;;;;;9.10;2.35;;;1.60;99.90;;;;;;4980073;28;20034;-71
2020/12/26 00:34:21;;;;;;;6.85;2.50;;;1.60;99.90;;;;;;4980933;28;20034;-72
2020/12/26 00:36:47;;;;;;;8.15;2.40;;;1.60;99.90;;;;;;4981324;28;20062;-70
2020/12/26 00:39:13;;;;;;;7.55;2.28;;;1.50;99.90;;;;;;4981428;28;20034;-71
2020/12/26 00:41:39;;;;;;;8.02;2.20;;;1.50;99.90;;;;;;4979566;28;20088;-71
2020/12/26 00:44:05;;;;;;;8.02;2.28;;;1.40;99.90;;;;;;4981766;28;20034;-71
2020/12/26 00:46:31;;;;;;;6.07;1.88;;;1.40;99.90;;;;;;4980472;28;20030;-71
2020/12/26 00:48:57;;;;;;;9.88;2.08;;;1.40;99.90;;;;;;4980454;28;20092;-70
2020/12/26 00:51:23;;;;;;;7.95;2.40;;;1.40;99.90;;;;;;4976974;28;20038;-71
2020/12/26 00:53:49;;;;;;;6.88;2.00;;;1.30;99.90;;;;;;4976912;28;20061;-70
2020/12/26 00:56:14;;;;;;;9.93;2.33;;;1.30;99.90;;;;;;4974141;28;20034;-70
2020/12/26 00:58:40;;;;;;;5.63;2.15;;;1.20;99.90;;;;;;4979189;28;21145;-70
2020/12/26 01:01:07;;;;;;;7.60;1.83;;;1.20;99.90;;;;;;4975914;28;20023;-70
2020/12/26 01:04:07;;;;;;;4.60;2.03;;;1.20;99.90;;;;;;4978972;28;20049;-70
2020/12/26 01:06:33;;;;;;;9.02;2.03;;;1.30;99.90;;;;;;4977373;28;20027;-70
2020/12/26 01:08:59;;;;;;;7.97;2.15;;;1.20;99.90;;;;;;4980786;28;20494;-70
2020/12/26 01:11:24;;;;;;;4.68;2.05;;;1.20;99.90;;;;;;4980124;28;20333;-71
2020/12/26 01:13:50;;;;;;;5.10;2.00;;;1.20;99.90;;;;;;4979665;28;20040;-71
2020/12/26 01:16:16;;;;;;;7.95;2.20;;;1.20;99.90;;;;;;4978555;28;20062;-70
2020/12/26 01:18:41;;;;;;;5.78;1.65;;;1.20;99.90;;;;;;4979427;28;20173;-71
2020/12/26 01:21:07;;;;;;;5.95;3.08;;;1.10;99.90;;;;;;4975615;28;20127;-70
2020/12/26 01:23:34;;;;;;;9.57;2.03;;;1.10;99.90;;;;;;4977319;28;20376;-71
2020/12/26 01:26:00;;;;;;;8.75;1.98;;;1.10;99.90;;;;;;4979635;28;20064;-71
2020/12/26 01:28:27;;;;;;;5.47;2.00;;;1.10;99.90;;;;;;4980059;28;20057;-71
2020/12/26 01:30:53;;;;;;;4.63;1.92;;;1.10;99.90;;;;;;4980071;28;20725;-71
2020/12/26 01:33:19;;;;;;;7.03;2.10;;;1.00;99.90;;;;;;4975440;28;20039;-72
2020/12/26 01:35:44;;;;;;;6.25;2.00;;;1.00;99.90;;;;;;4979461;28;20038;-71
2020/12/26 01:38:10;;;;;;;6.88;1.70;;;1.00;99.90;;;;;;4980284;28;20042;-71
2020/12/26 01:40:36;;;;;;;4.68;1.77;;;1.10;99.90;;;;;;4979192;28;20104;-70
2020/12/26 01:43:03;;;;;;;4.82;1.77;;;1.00;99.90;;;;;;4979903;28;20037;-70
2020/12/26 01:45:29;;;;;;;5.65;2.00;;;1.00;99.90;;;;;;4976414;28;20081;-71
2020/12/26 01:47:55;;;;;;;8.13;1.60;;;1.00;99.90;;;;;;4980068;28;20134;-71
2020/12/26 01:50:21;;;;;;;21.02;4.15;;;1.00;99.90;;;;;;4973150;28;20037;-70
2020/12/26 01:52:48;;;;;;;8.60;2.15;;;1.00;99.90;;;;;;4980004;28;20030;-70
2020/12/26 01:55:14;;;;;;;4.90;1.60;;;1.00;99.90;;;;;;4979746;28;20835;-71
2020/12/26 01:57:51;;;;;;;4.60;1.90;;;1.00;99.90;;;;;;4979428;28;20048;-71
2020/12/26 02:00:18;;;;;;;9.23;2.13;;;1.00;99.90;;;;;;4975013;28;20031;-71
2020/12/26 02:02:45;;;;;;;12.57;2.40;;;1.00;99.90;;;;;;4966713;28;20035;-71
2020/12/26 02:05:10;;;;;;;6.78;2.10;;;0.90;99.90;;;;;;4978982;28;20270;-70
2020/12/26 02:07:36;;;;;;;4.07;2.03;;;1.00;99.90;;;;;;4984295;28;20561;-71
2020/12/26 02:10:02;;;;;;;9.20;2.30;;;0.90;99.90;;;;;;4979380;28;20674;-70
2020/12/26 02:12:30;;;;;;;8.30;1.83;;;0.90;99.90;;;;;;4977404;28;20654;-70
2020/12/26 02:14:55;;;;;;;5.90;1.75;;;1.00;99.90;;;;;;4974574;28;20513;-71
2020/12/26 02:17:28;;;;;;;10.90;2.10;;;0.90;99.90;;;;;;4976499;28;20031;-70
2020/12/26 02:19:54;;;;;;;12.13;1.80;;;0.90;99.90;;;;;;4982865;28;20045;-70
2020/12/26 02:22:20;;;;;;;7.38;1.65;;;0.80;99.90;;;;;;4977468;28;20030;-70
2020/12/26 02:24:46;;;;;;;5.53;1.80;;;0.80;99.90;;;;;;4977936;28;20055;-71
2020/12/26 02:27:12;;;;;;;7.30;1.88;;;0.90;99.90;;;;;;4978108;28;20057;-70
2020/12/26 02:29:37;;;;;;;8.95;2.40;;;0.90;99.90;;;;;;4982128;28;20463;-70
2020/12/26 02:32:03;;;;;;;5.10;1.55;;;0.90;99.90;;;;;;4982777;28;20769;-71
2020/12/26 02:34:29;;;;;;;8.57;2.03;;;0.80;99.90;;;;;;4982377;28;20085;-70
2020/12/26 02:36:54;;;;;;;5.85;2.00;;;0.90;99.90;;;;;;4982648;28;20038;-71
2020/12/26 02:39:20;;;;;;;8.48;2.42;;;0.90;99.90;;;;;;4982680;28;20038;-70
2020/12/26 02:41:49;;;;;;;8.13;2.15;;;0.80;99.90;;;;;;4982437;28;20027;-71
2020/12/26 02:44:15;;;;;;;6.43;1.80;;;0.80;99.90;;;;;;4982439;28;20034;-70
2020/12/26 02:46:41;;;;;;;11.65;2.10;;;0.80;99.90;;;;;;4980844;28;20085;-71
2020/12/26 02:49:06;;;;;;;4.30;1.75;;;0.80;99.90;;;;;;4978017;28;20027;-71
2020/12/26 02:51:35;;;;;;;4.10;1.75;;;0.90;99.90;;;;;;4979546;28;20133;-70
2020/12/26 02:54:01;;;;;;;6.38;1.70;;;0.80;99.90;;;;;;4982353;28;20084;-70
2020/12/26 02:56:26;;;;;;;4.50;2.17;;;0.80;99.90;;;;;;4979308;28;20586;-70
2020/12/26 02:58:52;;;;;;;4.25;1.75;;;0.90;99.90;;;;;;4980801;28;20133;-70
2020/12/26 03:01:18;;;;;;;5.07;1.80;;;0.80;99.90;;;;;;4982196;28;20062;-70
2020/12/26 03:03:43;;;;;;;11.70;1.90;;;0.70;99.90;;;;;;4996485;28;20034;-71
2020/12/26 03:06:12;;;;;;;7.50;1.90;;;0.80;99.90;;;;;;4981657;28;20642;-71
2020/12/26 03:08:38;;;;;;;5.57;1.77;;;0.80;99.90;;;;;;4982422;28;20043;-71
2020/12/26 03:11:04;;;;;;;6.30;1.90;;;0.80;99.90;;;;;;4982087;28;20065;-71
2020/12/26 03:13:29;;;;;;;5.05;2.15;;;0.90;99.90;;;;;;4981783;28;20746;-71
2020/12/26 03:15:58;;;;;;;5.82;2.15;;;0.80;99.90;;;;;;4981943;28;20118;-70
2020/12/26 03:18:24;;;;;;;5.13;2.03;;;0.80;99.90;;;;;;4981526;28;20030;-71
2020/12/26 03:20:50;;;;;;;6.15;1.70;;;0.80;99.90;;;;;;4981985;28;20081;-71
2020/12/26 03:23:16;;;;;;;9.32;2.40;;;0.80;99.90;;;;;;4981829;28;20773;-71
2020/12/26 03:25:41;;;;;;;7.90;2.10;;;0.70;99.90;;;;;;4980943;28;20110;-71
2020/12/26 03:28:07;;;;;;;3.05;1.70;;;0.70;99.90;;;;;;4976604;28;20050;-71
2020/12/26 03:30:33;;;;;;;11.18;2.05;;;0.70;99.90;;;;;;4980313;28;20490;-71
2020/12/26 03:32:58;;;;;;;5.60;1.73;;;0.80;99.90;;;;;;4981399;28;20045;-71
2020/12/26 03:35:24;;;;;;;6.97;1.73;;;0.80;99.90;;;;;;4980999;28;20566;-71
2020/12/26 03:37:50;;;;;;;4.63;2.78;;;0.90;99.90;;;;;;4980468;28;20041;-71
2020/12/26 03:40:15;;;;;;;7.63;2.00;;;0.90;99.90;;;;;;4980976;28;20034;-71
2020/12/26 03:42:41;;;;;;;5.72;2.08;;;0.80;99.90;;;;;;4981355;28;20030;-71
2020/12/26 03:45:07;;;;;;;5.20;1.90;;;0.80;99.90;;;;;;4979608;28;20050;-71
2020/12/26 03:47:33;;;;;;;4.93;1.50;;;0.90;99.90;;;;;;4980518;28;20034;-71
2020/12/26 03:49:59;;;;;;;3.45;1.67;;;0.80;99.90;;;;;;4976673;28;20384;-71
2020/12/26 03:52:25;;;;;;;4.88;1.73;;;0.90;99.90;;;;;;4979229;28;20045;-71
2020/12/26 03:54:50;;;;;;;6.28;1.83;;;0.90;99.90;;;;;;4980288;28;20496;-72
2020/12/26 03:57:16;;;;;;;5.07;1.98;;;0.90;99.90;;;;;;4982133;28;20557;-71
2020/12/26 03:59:42;;;;;;;7.07;2.17;;;0.90;99.90;;;;;;4980118;28;20041;-71
2020/12/26 04:02:08;;;;;;;7.47;1.98;;;0.80;99.90;;;;;;4976118;28;20038;-70
2020/12/26 04:04:34;;;;;;;4.35;1.75;;;0.80;99.90;;;;;;4979997;28;20045;-70
2020/12/26 04:07:00;;;;;;;3.35;1.95;;;0.70;99.90;;;;;;4980306;28;20038;-70
2020/12/26 04:09:25;;;;;;;4.00;2.25;;;0.70;99.90;;;;;;4981200;28;20030;-70
2020/12/26 04:11:51;;;;;;;4.47;1.88;;;0.70;99.90;;;;;;4978005;28;20026;-71
2020/12/26 04:14:17;;;;;;;5.57;1.92;;;0.70;99.90;;;;;;4977368;28;20487;-71
2020/12/26 04:16:42;;;;;;;7.40;2.15;;;0.70;99.90;;;;;;4981229;28;20046;-72
2020/12/26 04:19:08;;;;;;;6.75;2.28;;;0.70;99.90;;;;;;4981648;28;20035;-72
2020/12/26 04:21:34;;;;;;;12.57;2.30;;;0.70;99.90;;;;;;4979762;28;20806;-72
2020/12/26 04:23:59;;;;;;;8.40;2.40;;;0.60;99.90;;;;;;4981614;28;20053;-71
2020/12/26 04:26:25;;;;;;;5.50;2.50;;;0.60;99.90;;;;;;4980281;28;20026;-71
2020/12/26 04:28:51;;;;;;;10.57;2.50;;;0.60;99.90;;;;;;4981180;28;20042;-72
2020/12/26 04:31:17;;;;;;;6.95;2.50;;;0.60;99.90;;;;;;4981249;28;20050;-72
2020/12/26 04:33:43;;;;;;;5.60;2.47;;;0.60;99.90;;;;;;4980576;28;20066;-71
2020/12/26 04:36:09;;;;;;;6.85;2.53;;;0.40;99.90;;;;;;4978550;28;20145;-71
2020/12/26 04:38:35;;;;;;;5.70;2.67;;;0.40;99.90;;;;;;4979918;28;20030;-71
2020/12/26 04:41:02;;;;;;;12.27;2.63;;;0.40;99.90;;;;;;4980543;28;20177;-72
2020/12/26 04:43:28;;;;;;;8.10;2.67;;;0.40;99.90;;;;;;4980324;28;20038;-71
2020/12/26 04:45:55;;;;;;;5.40;2.47;;;0.40;99.90;;;;;;4977544;28;20867;-71
2020/12/26 04:48:26;;;;;;;5.70;2.75;;;0.40;99.90;;;;;;4979848;28;20514;-72
2020/12/26 04:51:03;;;;;;;4.43;2.97;;;0.30;99.90;;;;;;4977616;28;20042;-71
2020/12/26 04:53:38;;;;;;;7.47;2.88;;;0.20;99.90;;;;;;4979709;28;20045;-71
2020/12/26 04:56:03;;;;;;;;;;;-0.10;99.90;;;;;;4975457;28;20077;-70
2020/12/26 04:58:34;;;;;;;7.15;3.10;;;-0.10;99.90;;;;;;4978989;28;20016;-70
2020/12/26 05:01:00;;;;;;;11.50;3.33;;;-0.20;99.90;;;;;;4980723;28;20112;-70
2020/12/26 05:03:28;;;;;;;9.90;3.40;;;-0.20;99.90;;;;;;4981127;28;20037;-70
2020/12/26 05:06:06;;;;;;;8.88;3.40;;;-0.20;99.90;;;;;;4980555;28;20036;-70
2020/12/26 05:08:32;;;;;;;6.95;3.58;;;-0.30;99.90;;;;;;4979070;28;20482;-70
2020/12/26 05:10:59;;;;;;;11.05;4.43;;;-0.40;99.90;;;;;;4980570;28;20202;-70
2020/12/26 05:13:25;;;;;;;8.98;4.25;;;-0.40;99.90;;;;;;4980996;28;20084;-71
2020/12/26 05:15:53;;;;;;;12.13;5.75;;;-0.40;99.90;;;;;;4980172;28;20879;-70
2020/12/26 05:18:18;;;;;;;12.20;5.53;;;-0.50;99.90;;;;;;4980338;28;20116;-71
2020/12/26 05:20:44;;;;;;;10.98;5.32;;;-0.50;99.90;;;;;;4979617;28;20026;-71
2020/12/26 05:23:15;;;;;;;41.42;15.70;;;-0.50;99.90;;;;;;4979995;28;20034;-71
2020/12/26 05:25:42;;;;;;;12.18;5.95;;;-0.40;99.90;;;;;;4979841;28;20030;-71
2020/12/26 05:28:16;;;;;;;15.38;6.95;;;-0.40;99.90;;;;;;4980096;28;20026;-72
2020/12/26 05:30:44;;;;;;;12.23;6.63;;;-0.50;99.90;;;;;;4979939;28;20030;-71
2020/12/26 05:33:10;;;;;;;12.80;6.78;;;-0.50;99.90;;;;;;4976201;28;20050;-70
2020/12/26 05:35:45;;;;;;;17.45;8.05;;;-0.60;99.90;;;;;;4977144;28;20038;-70
2020/12/26 05:38:22;;;;;;;17.10;7.53;;;-0.60;99.90;;;;;;4980065;28;20275;-71
2020/12/26 05:40:51;;;;;;;16.52;7.95;;;-0.70;99.90;;;;;;4978764;28;20121;-71
2020/12/26 05:43:19;;;;;;;20.98;8.35;;;-0.70;99.90;;;;;;4970645;28;20041;-71
2020/12/26 05:45:46;;;;;;;17.15;7.88;;;-0.60;99.90;;;;;;4977375;28;20372;-71
2020/12/26 05:48:14;;;;;;;18.08;8.10;;;-0.70;99.90;;;;;;4974909;28;20053;-71
2020/12/26 05:50:41;;;;;;;17.88;8.02;;;-0.70;99.90;;;;;;4979360;28;20046;-70
2020/12/26 05:53:08;;;;;;;21.35;8.27;;;-0.70;99.90;;;;;;4980131;28;20122;-72
2020/12/26 05:55:45;;;;;;;20.20;8.50;;;-0.70;99.90;;;;;;4993655;28;20031;-71
2020/12/26 05:58:11;;;;;;;29.98;12.18;;;-0.60;99.90;;;;;;4979856;28;20030;-72
2020/12/26 06:00:42;;;;;;;18.83;9.50;;;-0.60;99.90;;;;;;4979148;28;20022;-72
2020/12/26 06:03:24;;;;;;;66.13;25.52;;;-0.60;99.90;;;;;;4978320;28;20112;-70
2020/12/26 06:05:58;;;;;;;25.35;9.32;;;-0.40;99.90;;;;;;4990875;28;20038;-70
2020/12/26 06:08:25;;;;;;;26.00;9.65;;;-0.40;99.90;;;;;;4972244;28;20032;-70
2020/12/26 06:10:57;;;;;;;20.00;9.40;;;-0.30;99.90;;;;;;4979099;28;20847;-70
2020/12/26 06:13:31;;;;;;;21.58;9.10;;;-0.30;99.90;;;;;;4977601;28;20046;-70
2020/12/26 06:16:01;;;;;;;19.63;9.50;;;-0.20;99.90;;;;;;4978693;28;20042;-70
2020/12/26 06:18:31;;;;;;;21.20;9.65;;;-0.20;99.90;;;;;;4978577;28;20033;-70
2020/12/26 06:20:57;;;;;;;31.30;11.40;;;-0.20;99.90;;;;;;4973379;28;20409;-70
2020/12/26 06:23:25;;;;;;;27.58;11.13;;;0.00;99.90;;;;;;4978664;28;20034;-70
2020/12/26 06:25:52;;;;;;;31.65;12.10;;;0.10;99.90;;;;;;4963948;28;20050;-70
2020/12/26 06:28:31;;;;;;;28.35;11.63;;;0.10;99.90;;;;;;4969270;28;20043;-70
2020/12/26 06:31:08;;;;;;;34.42;12.30;;;0.10;99.90;;;;;;4969288;28;20884;-70
2020/12/26 06:33:39;;;;;;;29.95;12.02;;;0.10;99.90;;;;;;4971337;28;20057;-70
2020/12/26 06:36:07;;;;;;;26.55;12.05;;;0.30;99.90;;;;;;4973807;28;20034;-70
2020/12/26 06:38:34;;;;;;;26.42;11.93;;;0.30;99.90;;;;;;4976921;28;20042;-73
2020/12/26 06:41:02;;;;;;;25.67;10.52;;;0.20;99.90;;;;;;4973848;28;20115;-71
2020/12/26 06:43:50;;;;;;;37.83;15.35;;;0.30;99.90;;;;;;4977185;28;20027;-71
2020/12/26 06:46:22;;;;;;;36.60;13.73;;;0.30;99.90;;;;;;4970542;28;20033;-73
2020/12/26 06:48:49;;;;;;;25.38;12.00;;;0.30;99.90;;;;;;4971699;28;20121;-71
2020/12/26 06:51:28;;;;;;;24.23;12.02;;;0.40;99.90;;;;;;4979126;28;20053;-71
2020/12/26 06:53:56;;;;;;;27.20;11.52;;;0.30;99.90;;;;;;4976703;28;20052;-71
2020/12/26 06:56:36;;;;;;;30.00;12.98;;;0.30;99.90;;;;;;4972008;28;20085;-71
2020/12/26 06:59:05;;;;;;;34.45;12.48;;;0.40;99.90;;;;;;4973331;28;20034;-70
2020/12/26 07:01:32;;;;;;;28.70;12.50;;;0.30;99.90;;;;;;4978073;28;20041;-71
2020/12/26 07:04:14;;;;;;;31.67;13.35;;;0.30;99.90;;;;;;4978748;28;20352;-71
2020/12/26 07:06:41;;;;;;;27.90;13.48;;;0.40;99.90;;;;;;4975331;28;20034;-71
2020/12/26 07:09:08;;;;;;;31.95;13.70;;;0.40;99.90;;;;;;4973534;28;20541;-71
2020/12/26 07:11:53;;;;;;;33.28;13.45;;;0.30;99.90;;;;;;4978337;28;20050;-71
2020/12/26 07:14:38;;;;;;;31.27;13.38;;;0.40;99.90;;;;;;4990791;28;20041;-71
2020/12/26 07:17:13;;;;;;;30.88;14.00;;;0.40;99.90;;;;;;4976105;28;20035;-71
2020/12/26 07:19:46;;;;;;;38.30;13.88;;;0.40;99.90;;;;;;4967859;28;20038;-73
2020/12/26 07:22:29;;;;;;;56.78;23.48;;;0.40;99.90;;;;;;4970794;28;20038;-71
2020/12/26 07:24:59;;;;;;;32.58;12.80;;;0.40;99.90;;;;;;4979135;28;20034;-72
2020/12/26 07:27:26;;;;;;;37.15;13.15;;;0.40;99.90;;;;;;4978981;28;20038;-72
2020/12/26 07:30:11;;;;;;;30.33;12.88;;;0.40;99.90;;;;;;4979716;28;20073;-72
2020/12/26 07:32:37;;;;;;;27.95;12.38;;;0.50;99.90;;;;;;4975169;28;20050;-72
2020/12/26 07:35:07;;;;;;;43.13;16.58;;;0.50;99.90;;;;;;4974969;28;20092;-72
2020/12/26 07:37:33;;;;;;;33.10;14.00;;;0.50;99.90;;;;;;4972505;28;20043;-74
2020/12/26 07:39:59;;;;;;;30.30;12.48;;;0.60;99.90;;;;;;4975846;28;20049;-71
2020/12/26 07:42:25;;;;;;;29.65;12.00;;;0.60;99.90;;;;;;4975249;28;20383;-71
2020/12/26 07:44:52;;;;;;;32.63;13.27;;;0.60;99.90;;;;;;4974586;28;20114;-71
2020/12/26 07:47:17;;;;;;;31.95;12.55;;;0.70;99.90;;;;;;4981392;28;20073;-71
2020/12/26 07:49:56;;;;;;;34.92;13.65;;;0.70;99.90;;;;;;4980909;28;20146;-71
2020/12/26 07:52:22;;;;;;;28.13;11.48;;;0.60;99.90;;;;;;4981811;28;20062;-71
2020/12/26 07:54:57;;;;;;;29.27;12.27;;;0.60;99.90;;;;;;4973918;28;20034;-71
2020/12/26 07:57:23;;;;;;;30.13;12.70;;;0.70;99.90;;;;;;4999463;28;20046;-71
2020/12/26 07:59:48;;;;;;;30.20;12.30;;;0.70;99.90;;;;;;4973409;28;20037;-71
2020/12/26 08:02:14;;;;;;;25.20;12.10;;;0.70;99.90;;;;;;4965592;28;20046;-71
2020/12/26 08:04:44;;;;;;;24.70;11.50;;;0.80;99.90;;;;;;4980895;28;20607;-70
2020/12/26 08:07:12;;;;;;;32.53;12.55;;;0.80;99.90;;;;;;4980346;28;20812;-72
2020/12/26 08:09:37;;;;;;;27.13;12.50;;;0.90;99.90;;;;;;4978690;28;20441;-69
2020/12/26 08:12:06;;;;;;;30.10;12.50;;;0.90;99.90;;;;;;4979768;28;20530;-69
2020/12/26 08:14:33;;;;;;;31.90;11.48;;;1.00;99.90;;;;;;4980536;28;20033;-71
2020/12/26 08:16:59;;;;;;;26.40;12.05;;;1.00;99.90;;;;;;4970379;28;20038;-71
2020/12/26 08:19:25;;;;;;;29.05;13.25;;;1.10;99.90;;;;;;4978415;28;20109;-71
2020/12/26 08:21:58;;;;;;;24.70;11.35;;;1.10;99.90;;;;;;4973811;28;20030;-72
2020/12/26 08:24:24;;;;;;;25.30;11.20;;;1.10;99.90;;;;;;4974349;28;20062;-71
2020/12/26 08:26:53;;;;;;;25.38;11.48;;;1.20;99.90;;;;;;4973700;28;20545;-71
2020/12/26 08:29:32;;;;;;;30.42;11.32;;;1.10;99.90;;;;;;4979952;28;20034;-71
2020/12/26 08:32:07;;;;;;;21.15;11.40;;;1.00;99.90;;;;;;4980566;28;20030;-71
2020/12/26 08:34:47;;;;;;;27.15;11.48;;;1.10;99.90;;;;;;4980397;28;20117;-71
2020/12/26 08:37:24;;;;;;;23.05;10.40;;;1.10;99.90;;;;;;4968342;28;20120;-71
2020/12/26 08:40:03;;;;;;;28.17;13.10;;;1.10;99.90;;;;;;4976779;28;20034;-72
2020/12/26 08:42:29;;;;;;;25.77;11.02;;;1.10;99.90;;;;;;4964309;28;20645;-68
2020/12/26 08:44:55;;;;;;;22.70;11.63;;;1.20;99.90;;;;;;4973672;28;20037;-69
2020/12/26 08:47:29;;;;;;;23.15;10.95;;;1.20;99.90;;;;;;4967640;28;20038;-68
2020/12/26 08:49:55;;;;;;;28.52;12.05;;;1.20;99.90;;;;;;4978626;28;20042;-68
2020/12/26 08:52:27;;;;;;;20.38;10.68;;;1.20;99.90;;;;;;4978085;28;20546;-68
2020/12/26 08:55:04;;;;;;;19.98;10.25;;;1.20;99.90;;;;;;4974710;28;20182;-68
2020/12/26 08:57:31;;;;;;;24.30;9.70;;;1.20;99.90;;;;;;4971374;28;20038;-71
2020/12/26 09:00:18;;;;;;;24.42;10.98;;;1.20;99.90;;;;;;4973632;28;20030;-71
2020/12/26 09:02:51;;;;;;;22.98;10.15;;;1.20;99.90;;;;;;4971889;28;20685;-71
2020/12/26 09:05:24;;;;;;;20.25;10.00;;;1.20;99.90;;;;;;4976454;28;20725;-75
2020/12/26 09:08:03;;;;;;;18.73;10.18;;;1.20;99.90;;;;;;4973283;28;20070;-75
2020/12/26 09:10:29;;;;;;;30.25;11.00;;;1.20;99.90;;;;;;4971300;28;20161;-71
2020/12/26 09:13:07;;;;;;;25.80;12.77;;;1.20;99.90;;;;;;4973320;28;20042;-72
2020/12/26 09:15:49;;;;;;;42.55;19.75;;;1.40;99.90;;;;;;4979497;28;20717;-72
2020/12/26 09:18:19;;;;;;;49.80;21.73;;;1.40;99.90;;;;;;4979997;28;20027;-75
2020/12/26 09:21:03;;;;;;;24.92;11.07;;;1.50;99.90;;;;;;4976006;28;20106;-72
2020/12/26 09:23:38;;;;;;;20.52;9.15;;;1.70;99.90;;;;;;4966533;28;20177;-73
2020/12/26 09:26:15;;;;;;;25.92;12.80;;;1.70;99.90;;;;;;4973001;28;20040;-72
2020/12/26 09:28:53;;;;;;;23.77;12.55;;;1.70;99.90;;;;;;4970241;28;20042;-72
2020/12/26 09:31:36;;;;;;;20.52;9.27;;;1.80;99.90;;;;;;4969383;28;20058;-69
2020/12/26 09:34:17;;;;;;;26.00;11.57;;;1.90;99.90;;;;;;4975133;28;20122;-73
2020/12/26 09:36:44;;;;;;;24.75;10.55;;;1.80;99.90;;;;;;4971987;28;20042;-71
2020/12/26 09:39:09;;;;;;;20.13;9.65;;;1.90;99.90;;;;;;4979559;28;20062;-71
2020/12/26 09:41:47;;;;;;;18.60;9.43;;;2.00;99.90;;;;;;4979657;28;20200;-72
2020/12/26 09:44:14;;;;;;;20.42;8.63;;;2.10;99.90;;;;;;4979469;28;20026;-69
2020/12/26 09:46:40;;;;;;;22.27;8.45;;;2.20;99.90;;;;;;4965622;28;20033;-71
2020/12/26 09:49:07;;;;;;;15.50;7.70;;;2.20;99.90;;;;;;4975205;28;20042;-71
2020/12/26 09:51:32;;;;;;;17.88;8.05;;;2.00;99.90;;;;;;4964520;28;20049;-72
2020/12/26 09:53:58;;;;;;;17.48;8.23;;;1.90;99.90;;;;;;4974320;28;20026;-71
2020/12/26 09:56:24;;;;;;;16.67;8.13;;;1.80;99.90;;;;;;4972947;28;20118;-71
2020/12/26 09:58:50;;;;;;;14.90;7.25;;;1.90;99.90;;;;;;4979284;28;20101;-72
2020/12/26 10:01:17;;;;;;;16.83;7.25;;;1.90;99.90;;;;;;4965635;28;20506;-67
2020/12/26 10:03:44;;;;;;;15.40;7.32;;;1.80;99.90;;;;;;4968875;28;20248;-67
2020/12/26 10:06:14;;;;;;;28.15;15.45;;;1.70;99.90;;;;;;4977763;28;20189;-67
2020/12/26 10:08:44;;;;;;;24.38;11.73;;;1.90;99.90;;;;;;4978355;28;20042;-67
2020/12/26 10:11:13;;;;;;;17.15;7.82;;;1.80;99.90;;;;;;4970070;28;20046;-67
2020/12/26 10:13:40;;;;;;;20.67;9.68;;;1.90;99.90;;;;;;4969558;28;20689;-68
2020/12/26 10:16:05;;;;;;;20.05;12.00;;;2.20;99.90;;;;;;4966468;28;20089;-70
2020/12/26 10:18:31;;;;;;;15.32;6.97;;;2.10;99.90;;;;;;4973060;28;20038;-71
2020/12/26 10:20:57;;;;;;;14.32;6.57;;;1.90;99.90;;;;;;4999658;28;20031;-70
2020/12/26 10:23:23;;;;;;;19.80;9.35;;;1.80;99.90;;;;;;4975856;28;20030;-71
2020/12/26 10:25:50;;;;;;;14.05;6.53;;;1.80;99.90;;;;;;4973924;28;20026;-70
2020/12/26 10:28:19;;;;;;;20.88;9.15;;;1.70;99.90;;;;;;4973629;28;20510;-70
2020/12/26 10:30:47;;;;;;;19.95;7.22;;;1.80;99.90;;;;;;4976547;28;20034;-71
2020/12/26 10:33:13;;;;;;;20.27;10.60;;;1.80;99.90;;;;;;4970880;28;20046;-72
2020/12/26 10:35:39;;;;;;;56.22;21.17;;;2.00;99.90;;;;;;4965984;28;20180;-70
2020/12/26 10:38:05;;;;;;;20.10;8.45;;;2.10;99.90;;;;;;5003523;28;20126;-70
2020/12/26 10:40:31;;;;;;;15.90;6.93;;;2.10;99.90;;;;;;4976421;28;20138;-71
2020/12/26 10:42:56;;;;;;;24.25;11.50;;;2.10;99.90;;;;;;4973168;28;20085;-70
2020/12/26 10:45:22;;;;;;;23.08;10.57;;;2.10;99.90;;;;;;4972520;28;20149;-70
2020/12/26 10:47:48;;;;;;;34.22;14.35;;;2.00;99.90;;;;;;4981521;28;20069;-70
2020/12/26 10:50:13;;;;;;;15.10;7.40;;;2.00;99.90;;;;;;4977065;28;20031;-70
2020/12/26 10:52:39;;;;;;;25.40;10.63;;;2.10;99.90;;;;;;4980867;28;20031;-67
2020/12/26 10:55:05;;;;;;;46.20;18.65;;;2.10;99.90;;;;;;4978298;28;20047;-72
2020/12/26 10:57:31;;;;;;;46.65;19.52;;;1.90;99.90;;;;;;4971542;28;20049;-71
2020/12/26 10:59:56;;;;;;;18.33;9.70;;;1.80;99.90;;;;;;4983228;28;20038;-70
2020/12/26 11:02:22;;;;;;;25.92;11.10;;;1.90;99.90;;;;;;4982871;28;20030;-71
2020/12/26 11:04:48;;;;;;;10.95;7.00;;;1.80;99.90;;;;;;4977360;28;20027;-70
2020/12/26 11:07:13;;;;;;;93.72;35.63;;;1.80;99.90;;;;;;4978888;28;20041;-67
2020/12/26 11:09:39;;;;;;;25.23;11.73;;;1.80;99.90;;;;;;4980980;28;20425;-67
2020/12/26 11:12:05;;;;;;;46.30;18.20;;;1.80;99.90;;;;;;4982206;28;20041;-71
2020/12/26 11:14:30;;;;;;;26.92;10.52;;;1.80;99.90;;;;;;4982757;28;20046;-72
2020/12/26 11:16:56;;;;;;;29.70;12.25;;;1.90;99.90;;;;;;4982268;28;20049;-69
2020/12/26 11:19:22;;;;;;;18.35;8.20;;;1.90;99.90;;;;;;4976073;28;20041;-71
2020/12/26 11:21:52;;;;;;;15.88;6.85;;;2.00;99.90;;;;;;4976319;28;20773;-70
2020/12/26 11:24:17;;;;;;;15.05;7.38;;;2.00;99.90;;;;;;4980889;28;20171;-68
2020/12/26 11:26:43;;;;;;;14.13;7.35;;;2.00;99.90;;;;;;4981597;28;20109;-74
2020/12/26 11:29:09;;;;;;;17.60;8.15;;;2.10;99.90;;;;;;4982247;28;20037;-74
2020/12/26 11:31:35;;;;;;;14.77;6.20;;;2.10;99.90;;;;;;4979175;28;20045;-75
2020/12/26 11:34:00;;;;;;;16.42;7.05;;;2.20;99.90;;;;;;4982385;28;20034;-69
2020/12/26 11:36:28;;;;;;;13.57;6.38;;;2.40;99.90;;;;;;4978248;28;20117;-72
2020/12/26 11:38:54;;;;;;;18.42;6.78;;;2.40;99.90;;;;;;5005111;28;20034;-73
2020/12/26 11:41:23;;;;;;;13.45;7.88;;;2.50;99.90;;;;;;4980325;28;20152;-72
2020/12/26 11:43:49;;;;;;;20.92;8.27;;;2.60;99.90;;;;;;4975289;28;20046;-72
2020/12/26 11:46:15;;;;;;;16.38;8.27;;;2.70;99.90;;;;;;4981535;28;20034;-71
2020/12/26 11:48:41;;;;;;;26.50;10.55;;;2.70;99.90;;;;;;5012220;28;20034;-70
2020/12/26 11:51:09;;;;;;;15.18;6.65;;;2.90;99.90;;;;;;4979887;28;20042;-72
2020/12/26 11:53:35;;;;;;;14.27;6.25;;;2.90;99.90;;;;;;4973018;28;20038;-71
2020/12/26 11:56:00;;;;;;;19.55;10.95;;;3.00;99.90;;;;;;4974341;28;20034;-72
2020/12/26 11:58:26;;;;;;;14.77;8.00;;;3.10;99.90;;;;;;4975214;28;20137;-73
2020/12/26 12:00:55;;;;;;;27.50;10.30;;;3.10;99.90;;;;;;4981271;28;20104;-73
2020/12/26 12:03:21;;;;;;;29.35;10.85;;;3.10;99.90;;;;;;4973985;28;20033;-73
2020/12/26 12:05:47;;;;;;;21.17;9.00;;;3.00;99.90;;;;;;4973933;28;20426;-72
2020/12/26 12:08:13;;;;;;;18.15;7.78;;;3.00;99.90;;;;;;4981172;28;20112;-73
2020/12/26 12:10:40;;;;;;;19.58;8.55;;;3.00;99.90;;;;;;4997487;28;20765;-72
2020/12/26 12:13:07;;;;;;;26.27;9.82;;;2.80;99.90;;;;;;4981088;28;20030;-72
2020/12/26 12:15:33;;;;;;;25.60;10.07;;;2.80;99.90;;;;;;4960812;28;20043;-73
2020/12/26 12:18:00;;;;;;;36.65;10.43;;;2.90;99.90;;;;;;4979062;28;20045;-72
2020/12/26 12:20:29;;;;;;;18.45;7.80;;;2.80;99.90;;;;;;4980198;28;20041;-72
2020/12/26 12:22:56;;;;;;;17.50;8.43;;;3.00;99.90;;;;;;4974510;28;20038;-73
2020/12/26 12:25:22;;;;;;;15.52;7.47;;;3.00;99.90;;;;;;4967300;28;20031;-73
2020/12/26 12:27:48;;;;;;;16.25;7.90;;;2.90;99.90;;;;;;4974458;28;20054;-72
2020/12/26 12:30:14;;;;;;;16.25;6.82;;;3.00;99.90;;;;;;4973257;28;20110;-72
2020/12/26 12:32:40;;;;;;;22.10;9.27;;;3.00;99.90;;;;;;4980055;28;20045;-72
2020/12/26 12:35:06;;;;;;;19.10;7.25;;;3.20;99.90;;;;;;4974666;28;20149;-72
2020/12/26 12:37:32;;;;;;;12.43;6.82;;;3.10;99.90;;;;;;4971852;28;20126;-73
2020/12/26 12:39:58;;;;;;;16.73;6.45;;;3.10;99.90;;;;;;4974500;28;20147;-73
2020/12/26 12:42:28;;;;;;;15.95;6.80;;;3.10;99.90;;;;;;4979720;28;20758;-72
2020/12/26 12:44:55;;;;;;;19.67;7.25;;;3.00;99.90;;;;;;4971641;28;20030;-72
2020/12/26 12:47:25;;;;;;;16.48;7.60;;;3.00;99.90;;;;;;4977869;28;20038;-73
2020/12/26 12:49:50;;;;;;;14.15;6.80;;;3.10;99.90;;;;;;4973249;28;20042;-73